Terminal Aerodrome Forecast
Issued by NWS

Home | Current Version | Previous Version | Text Only | Print | Product List | Glossary On
Versions: 1 2 3 4 5 6 7 8 9 10 11 12 13 14 15 16 17 18 19
000
FTUS41 KBOX 240913 AAA
TAFHYA
TAF AMD
KHYA 240913Z 2409/2506 21010KT P6SM FEW005
     FM241500 21010G20KT P6SM BKN150
     FM250500 20008KT 3SM BR BKN008=

USA.gov is the U.S. government's official web portal to all federal, state and local government web resources and services.